Terminal Aerodrome Forecast
Issued by NWS

Home | Current Version | Previous Version | Text Only | Print | Product List | Glossary On
Versions: 1 2 3 4 5 6 7 8 9 10 11 12
000
FTUS42 TJSJ 281127
TAFJMZ
TAF
TJMZ 281127Z 2812/2912 VRB05KT P6SM FEW025 FEW045
     FM281600 29010KT P6SM VCTS SCT025CB BKN040
     FM282330 VRB05KT P6SM SCT030
      AMD NOT SKED TIL 281600=

USA.gov is the U.S. government's official web portal to all federal, state and local government web resources and services.